메인 페이지
METAR-TAF:

METAR-TAF

공항 :

마카파, 아마파, 브라질

위도: 00-02N, 경도: 050-03W, 고도: 15m

현재 날씨관측

예보는 18분 전, 22:00시(UTC)에 발표되었습니다.
동남동5kt
온도 30°C
습도 75%
기압 1012 hPa
시정 10km 이상
고도 4000ft 상공 구름 보통

METAR: SBMQ 132200Z 11005KT 9999 SCT040 30/25 Q1012

시각: 19:18 (22:18 UTC)

예보

예보는 6 시간 13분 전, 16:05시(UTC)에 발표되었습니다.
예보 대상 시간: 13일 18시부터 14일 18시까지 (UTC)
남동7kt
시정 10km 이상
고도 3000ft 상공 구름 보통
전환 중
13일 21시부터 13일 23시까지 (UTC)
7kt
고도 2500ft 상공 구름 보통
고도 4000ft 상공 구름 조금, 타워링 적운.
전환 중
14일 02시부터 14일 04시까지 (UTC)
북북동5kt
고도 1700ft 상공 구름 조금
전환 중
14일 08시부터 14일 10시까지 (UTC)
동북동5kt
시정: 7000m
고도 1400ft 상공 구름 보통
전환 중
14일 13시부터 14일 15시까지 (UTC)
동남동10kt
시정: 8000m
고도 2500ft 상공 구름 보통
고도 3500ft 상공 구름 조금, 타워링 적운.

TAF: SBMQ 131605Z 1318/1418 13007KT 9999 SCT030 TX33/1318Z TN26/1408Z BECMG 1321/1323 10007KT SCT025 FEW040TCU BECMG 1402/1404 03005KT FEW017 BECMG 1408/1410 07005KT 7000 SCT014 BECMG 1413/1415 11010KT 8000 SCT025 FEW035TCU RMK PGB

4,000개 이상의 공항 관측 자료 및 예보 (METAR 및 TAF 보고).

지도상에서 검색 가능한 기상관측소가 노란 점과 빨간 점으로 표시되어 있습니다.

기상관측소 명을 보려면 표시 위로 마우스를 이동하세요.

날씨 관측과 예보를 보려면 클릭하세요.

지도 변경 : 확대하려면 엑스 표시가 있는 녹색 버튼, 축소하려면 빼기 표시가 있는 녹색 버튼, 다음 페이지의 지도를 보려면 녹색 화살표를 클릭하세요.


METAR-TAF: